createdAt,value
2023-05-22T00:03:40.822Z,98956.71
2023-05-22T00:08:51.477Z,98951.93
2023-05-22T00:14:01.830Z,98953.71
2023-05-22T00:19:19.762Z,98946.45
2023-05-22T00:24:24.981Z,98945.40
2023-05-22T00:29:38.181Z,98944.31
2023-05-22T00:34:51.315Z,98939.79
2023-05-22T00:40:07.933Z,98934.81
2023-05-22T00:45:15.621Z,98928.92
2023-05-22T00:50:33.433Z,98925.59
2023-05-22T00:55:45.216Z,98924.45
2023-05-22T01:01:02.362Z,98926.73
2023-05-22T01:06:24.503Z,98921.20
2023-05-22T01:11:55.744Z,98917.58
2023-05-22T01:17:35.626Z,98917.83
2023-05-22T01:23:33.680Z,98909.40
2023-05-22T01:29:12.950Z,98899.56
2023-05-22T01:34:33.197Z,98902.61
2023-05-22T01:39:54.012Z,98904.36
2023-05-22T01:44:59.654Z,98904.45
2023-05-22T01:50:08.522Z,98903.95
2023-05-22T01:55:43.059Z,98904.82
2023-05-22T02:00:55.817Z,98900.77
2023-05-22T02:06:07.041Z,98895.70
2023-05-22T02:11:32.783Z,98896.95
2023-05-22T02:16:47.740Z,98900.76
2023-05-22T02:22:18.489Z,98901.55
2023-05-22T02:27:32.439Z,98899.96
2023-05-22T02:32:43.467Z,98901.80
2023-05-22T02:37:46.404Z,98903.92
2023-05-22T02:42:55.230Z,98900.23
2023-05-22T02:48:20.881Z,98897.09
2023-05-22T02:53:35.291Z,98899.33
2023-05-22T02:58:40.195Z,98898.27
2023-05-22T03:03:48.295Z,98896.59
2023-05-22T03:09:08.799Z,98896.42
2023-05-22T03:14:37.001Z,98896.97
2023-05-22T03:19:45.864Z,98897.42
2023-05-22T03:24:52.451Z,98898.85
2023-05-22T03:30:14.018Z,98899.48
2023-05-22T03:35:25.210Z,98902.61
2023-05-22T03:40:33.200Z,98904.61
2023-05-22T03:46:04.038Z,98905.10
2023-05-22T03:51:46.524Z,98911.16
2023-05-22T03:56:59.426Z,98915.21
2023-05-22T04:02:16.835Z,98909.83
2023-05-22T04:07:27.644Z,98909.13
2023-05-22T04:12:41.023Z,98906.46
2023-05-22T04:17:46.193Z,98907.45
2023-05-22T04:22:59.312Z,98901.60
2023-05-22T04:28:32.331Z,98901.91
2023-05-22T04:33:48.481Z,98895.92
2023-05-22T04:38:56.464Z,98898.77
2023-05-22T04:44:04.172Z,98899.12
2023-05-22T04:49:06.673Z,98899.10
2023-05-22T04:54:09.665Z,98892.04
2023-05-22T04:59:16.427Z,98890.21
2023-05-22T05:04:24.719Z,98888.13
2023-05-22T05:09:35.086Z,98888.11
2023-05-22T05:14:39.352Z,98888.65
2023-05-22T05:19:45.149Z,98891.69
2023-05-22T05:24:50.433Z,98894.77
2023-05-22T05:29:55.221Z,98899.70
2023-05-22T05:35:05.742Z,98898.13
2023-05-22T05:40:48.025Z,98900.23
2023-05-22T05:45:57.509Z,98900.24
2023-05-22T05:51:02.940Z,98897.34
2023-05-22T05:56:12.967Z,98895.21
2023-05-22T06:01:30.023Z,98892.94
2023-05-22T06:06:37.866Z,98885.66
2023-05-22T06:11:40.198Z,98887.86
2023-05-22T06:16:59.179Z,98887.22
2023-05-22T06:22:08.791Z,98892.52
2023-05-22T06:27:16.651Z,98884.55
2023-05-22T06:32:25.206Z,98883.22
2023-05-22T06:37:44.175Z,98881.41
2023-05-22T06:42:47.307Z,98880.63
2023-05-22T06:48:07.693Z,98880.73
2023-05-22T06:53:19.826Z,98881.20
2023-05-22T06:58:28.010Z,98883.30
2023-05-22T07:03:36.651Z,98882.00
2023-05-22T07:09:22.853Z,98882.66
2023-05-22T07:14:32.778Z,98878.95
2023-05-22T07:19:38.937Z,98878.52
2023-05-22T07:25:12.160Z,98877.54
2023-05-22T07:30:24.241Z,98868.16
2023-05-22T07:35:43.252Z,98866.92
2023-05-22T07:41:07.919Z,98864.79
2023-05-22T07:46:17.905Z,98860.11
2023-05-22T07:51:32.159Z,98856.80
2023-05-22T07:56:41.767Z,98855.23
2023-05-22T08:01:48.493Z,98857.16
2023-05-22T08:06:53.650Z,98855.80
2023-05-22T08:11:59.018Z,98857.45
2023-05-22T08:17:01.889Z,98851.66
2023-05-22T08:22:04.543Z,98850.02
2023-05-22T08:27:07.456Z,98844.69
2023-05-22T08:32:10.284Z,98842.05
2023-05-22T08:37:14.421Z,98839.39
2023-05-22T08:42:16.769Z,98828.84
2023-05-22T08:47:20.545Z,98830.86
2023-05-22T08:52:26.335Z,98835.52
2023-05-22T08:57:32.575Z,98833.89
2023-05-22T09:02:38.202Z,98832.42
2023-05-22T09:07:42.754Z,98829.94
2023-05-22T09:13:11.402Z,98831.61
2023-05-22T09:18:16.531Z,98829.19
2023-05-22T09:23:21.649Z,98826.64
2023-05-22T09:28:24.607Z,98828.65
2023-05-22T09:33:26.640Z,98827.98
2023-05-22T09:38:30.906Z,98825.30
2023-05-22T09:43:33.908Z,98821.03
2023-05-22T09:48:37.430Z,98821.48
2023-05-22T09:53:43.392Z,98815.70
2023-05-22T09:58:47.823Z,98810.82
2023-05-22T10:03:55.106Z,98805.02
2023-05-22T10:09:18.768Z,98801.29
2023-05-22T10:14:23.864Z,98797.16
2023-05-22T10:19:29.463Z,98795.26
2023-05-22T10:24:35.226Z,98792.30
2023-05-22T10:29:45.064Z,98792.68
2023-05-22T10:34:56.321Z,98789.56
2023-05-22T10:40:04.982Z,98786.53
2023-05-22T10:45:08.986Z,98786.17
2023-05-22T10:50:12.211Z,98783.68
2023-05-22T10:55:22.842Z,98780.52
2023-05-22T11:00:25.189Z,98777.64
2023-05-22T11:05:29.875Z,98772.86
2023-05-22T11:10:53.078Z,98769.48
2023-05-22T11:15:58.270Z,98767.45
2023-05-22T11:21:01.375Z,98762.63
2023-05-22T11:26:25.549Z,98754.53
2023-05-22T11:31:30.525Z,98753.52
2023-05-22T11:36:32.688Z,98752.88
2023-05-22T11:41:37.534Z,98752.77
2023-05-22T11:46:40.390Z,98757.42
2023-05-22T11:51:42.941Z,98757.77
2023-05-22T11:56:46.407Z,98758.36
2023-05-22T12:01:50.512Z,98758.02
2023-05-22T12:06:56.171Z,98751.75
2023-05-22T12:12:02.017Z,98757.02
2023-05-22T12:17:05.314Z,98756.73
2023-05-22T12:22:14.970Z,98753.98
2023-05-22T12:27:17.017Z,98749.90
2023-05-22T12:32:22.211Z,98742.67
2023-05-22T12:37:25.948Z,98738.77
2023-05-22T12:42:39.140Z,98733.04
2023-05-22T12:47:43.886Z,98727.10
2023-05-22T12:52:46.188Z,98726.34
2023-05-22T12:57:48.202Z,98726.35
2023-05-22T13:02:50.558Z,98723.14
2023-05-22T13:07:53.164Z,98724.71
2023-05-22T13:12:58.095Z,98719.64
2023-05-22T13:18:00.069Z,98717.07
2023-05-22T13:23:02.102Z,98717.45
2023-05-22T13:28:04.378Z,98719.44
2023-05-22T13:33:09.067Z,98712.44
2023-05-22T13:38:11.171Z,98714.16
2023-05-22T13:43:14.552Z,98709.41
2023-05-22T13:48:16.948Z,98705.27
2023-05-22T13:53:22.194Z,98703.37
2023-05-22T13:58:24.575Z,98700.64
2023-05-22T14:03:27.674Z,98694.30
2023-05-22T14:08:30.026Z,98687.90
2023-05-22T14:13:32.013Z,98686.22
2023-05-22T14:18:34.180Z,98682.30
2023-05-22T14:23:36.554Z,98681.04
2023-05-22T14:28:41.716Z,98676.48
2023-05-22T14:33:44.176Z,98669.52
2023-05-22T14:38:46.823Z,98664.39
2023-05-22T14:43:49.759Z,98659.59
2023-05-22T14:48:51.873Z,98656.01
2023-05-22T14:53:53.864Z,98653.81
2023-05-22T14:58:56.157Z,98652.75
2023-05-22T15:03:58.129Z,98640.27
2023-05-22T15:09:00.110Z,98638.63
2023-05-22T15:14:02.157Z,98641.00
2023-05-22T15:19:04.450Z,98634.39
2023-05-22T15:24:06.748Z,98633.74
2023-05-22T15:29:09.031Z,98631.55
2023-05-22T15:34:11.244Z,98629.22
2023-05-22T15:39:13.264Z,98621.77
2023-05-22T15:44:15.729Z,98621.03
2023-05-22T15:49:17.960Z,98617.30
2023-05-22T15:54:20.514Z,98612.96
2023-05-22T15:59:22.823Z,98610.83
2023-05-22T16:04:25.132Z,98609.43
2023-05-22T16:09:27.294Z,98604.48
2023-05-22T16:14:29.629Z,98605.29
2023-05-22T16:19:33.580Z,98600.49
2023-05-22T16:24:36.118Z,98597.85
2023-05-22T16:29:38.198Z,98596.07
2023-05-22T16:34:40.293Z,98594.32
2023-05-22T16:39:46.237Z,98594.10
2023-05-22T16:44:49.010Z,98598.69
2023-05-22T16:49:54.418Z,98595.40
2023-05-22T16:54:56.819Z,98600.52
2023-05-22T17:00:05.333Z,98604.76
2023-05-22T17:05:08.241Z,98612.35
2023-05-22T17:10:10.928Z,98616.89
2023-05-22T17:15:16.435Z,98618.13
2023-05-22T17:20:18.966Z,98619.85
2023-05-22T17:25:21.455Z,98625.07
2023-05-22T17:30:23.985Z,98627.77
2023-05-22T17:35:26.587Z,98627.19
2023-05-22T17:40:43.231Z,98619.74
2023-05-22T17:45:51.427Z,98618.98
2023-05-22T17:50:56.370Z,98620.10
2023-05-22T17:56:01.386Z,98618.37
2023-05-22T18:01:03.362Z,98614.34
2023-05-22T18:06:05.831Z,98620.09
2023-05-22T18:11:08.151Z,98615.30
2023-05-22T18:16:12.481Z,98619.15
2023-05-22T18:21:15.030Z,98615.52
2023-05-22T18:26:17.378Z,98618.82
2023-05-22T18:31:19.673Z,98619.65
2023-05-22T18:36:25.567Z,98614.04
2023-05-22T18:41:30.093Z,98616.98
2023-05-22T18:46:32.529Z,98619.42
2023-05-22T18:51:39.633Z,98619.48
2023-05-22T18:56:44.614Z,98624.33
2023-05-22T19:01:46.936Z,98622.84
2023-05-22T19:06:49.078Z,98623.40
2023-05-22T19:12:03.881Z,98624.86
2023-05-22T19:17:10.205Z,98629.13
2023-05-22T19:22:12.683Z,98628.85
2023-05-22T19:27:15.164Z,98625.91
2023-05-22T19:32:18.078Z,98626.45
2023-05-22T19:37:21.865Z,98632.71
2023-05-22T19:42:23.865Z,98630.22
2023-05-22T19:47:25.902Z,98624.20
2023-05-22T19:52:28.076Z,98631.41
2023-05-22T19:57:30.129Z,98628.34
2023-05-22T20:02:32.105Z,98628.40
2023-05-22T20:07:34.064Z,98628.54
2023-05-22T20:12:37.666Z,98632.64
2023-05-22T20:17:41.579Z,98624.41
2023-05-22T20:22:44.461Z,98622.44
2023-05-22T20:27:46.475Z,98619.35
2023-05-22T20:32:51.989Z,98616.64
2023-05-22T20:37:54.111Z,98613.76
2023-05-22T20:42:57.169Z,98609.98
2023-05-22T20:47:59.545Z,98613.73
2023-05-22T20:53:01.712Z,98613.26
2023-05-22T20:58:04.652Z,98605.91
2023-05-22T21:03:09.099Z,98602.38
2023-05-22T21:08:11.373Z,98601.48
2023-05-22T21:13:25.733Z,98599.02
2023-05-22T21:18:33.444Z,98596.23
2023-05-22T21:23:38.420Z,98593.45
2023-05-22T21:28:46.127Z,98595.58
2023-05-22T21:33:54.206Z,98596.58
2023-05-22T21:39:00.389Z,98588.83
2023-05-22T21:44:08.704Z,98591.55
2023-05-22T21:49:17.159Z,98591.95
2023-05-22T21:54:19.707Z,98590.86
2023-05-22T21:59:41.087Z,98591.98
2023-05-22T22:04:43.835Z,98590.90
2023-05-22T22:09:46.418Z,98588.95
2023-05-22T22:14:53.977Z,98584.48
2023-05-22T22:19:59.108Z,98583.44
2023-05-22T22:25:01.505Z,98577.25
2023-05-22T22:30:07.359Z,98572.96
2023-05-22T22:35:10.589Z,98573.66
2023-05-22T22:40:37.582Z,98570.41
2023-05-22T22:45:47.555Z,98566.12
2023-05-22T22:50:50.135Z,98562.59
2023-05-22T22:56:03.101Z,98561.48
2023-05-22T23:01:10.561Z,98561.69
2023-05-22T23:06:18.187Z,98559.56
2023-05-22T23:11:28.133Z,98554.61
2023-05-22T23:16:47.633Z,98553.09
2023-05-22T23:21:52.823Z,98554.50
2023-05-22T23:27:01.134Z,98547.83
2023-05-22T23:32:14.586Z,98542.64
2023-05-22T23:37:25.077Z,98535.34
2023-05-22T23:42:28.669Z,98531.51
2023-05-22T23:47:44.517Z,98530.47
2023-05-22T23:52:58.211Z,98527.88
2023-05-22T23:58:00.879Z,98522.19
